Ogdensburg, New Jersey
Current Conditions -  °F | °C
As of 1:09 PM on Monday 26 Jan 2015 (Local Time) from KFWN Reporting Station
Unknown Precip Unknown Precip  
Wind Chill:   Ceiling: 3000
Heat Index: 16°   Visibility: 6mi
Dew Point:   Wind: 13mph
Humidity: 74%   Direction: 40°NE
Pressure: 29.91"   Gusts: 21mph
Location:  41.08°N, 74.59°W
Report Text: KFWN 261809Z AUTO 04011G18KT 6SM UP OVC030 M09/M13 A2991 RMK AO2 UPB08SNE08 P0000 T10891128
Loading
Personal Weather Stations






























Interactive Weather Map New forecast layout! Learn more

10-Day Weather Forecast

Advertisements
Track Severe Weather on mobile